Time;durP1;ratioP1;P1;durP2;ratioP2;P2;SDS_P1;SDS_P2;PMS_P1;PMS_P2;Temp;Humidity;BMP_temperature;BMP_pressure;BME280_temperature;BME280_humidity;BME280_pressure;Samples;Min_cycle;Max_cycle;Signal;HPM_P1;HPM_P2
2021/11/15 00:01:13;;;;;;;80.53;41.95;;;;;;;5.83;93.14;102181.31;5024886;28;20088;-68
2021/11/15 00:03:42;;;;;;;79.60;42.22;;;;;;;5.83;93.10;102181.31;5006527;28;20033;-69
2021/11/15 00:06:09;;;;;;;81.03;41.25;;;;;;;5.81;93.03;102180.50;5006099;28;20467;-68
2021/11/15 00:08:37;;;;;;;79.45;42.47;;;;;;;5.83;93.54;102183.94;5006941;28;20068;-69
2021/11/15 00:11:04;;;;;;;89.78;45.53;;;;;;;5.80;93.24;102178.72;5007003;28;20057;-68
2021/11/15 00:13:31;;;;;;;82.75;41.00;;;;;;;5.80;93.77;102179.59;5024471;28;20115;-68
2021/11/15 00:15:58;;;;;;;86.07;45.28;;;;;;;5.76;93.78;102177.94;5023589;28;20393;-68
2021/11/15 00:18:26;;;;;;;79.65;42.53;;;;;;;5.76;94.28;102172.72;5009953;28;20049;-68
2021/11/15 00:20:53;;;;;;;86.55;43.13;;;;;;;5.77;94.09;102179.66;5007945;28;20480;-66
2021/11/15 00:23:20;;;;;;;86.45;45.25;;;;;;;5.83;93.67;102187.41;4989439;28;20050;-67
2021/11/15 00:25:48;;;;;;;85.28;43.70;;;;;;;5.82;94.01;102182.22;5024534;28;20144;-67
2021/11/15 00:28:16;;;;;;;83.85;43.03;;;;;;;5.79;94.07;102184.84;5025952;28;20532;-67
2021/11/15 00:30:43;;;;;;;82.38;43.40;;;;;;;5.77;94.54;102176.19;5006712;28;20054;-68
2021/11/15 00:33:10;;;;;;;84.95;43.80;;;;;;;5.72;94.56;102183.19;5024684;28;20058;-68
2021/11/15 00:35:37;;;;;;;83.22;44.47;;;;;;;5.74;94.42;102181.44;5022721;28;20053;-69
2021/11/15 00:38:04;;;;;;;84.03;44.22;;;;;;;5.73;94.75;102177.97;5024479;28;20095;-67
2021/11/15 00:40:31;;;;;;;79.50;41.42;;;;;;;5.71;94.83;102176.25;5022150;28;20069;-67
2021/11/15 00:42:59;;;;;;;79.20;42.80;;;;;;;5.70;94.27;102178.00;5024301;28;20393;-67
2021/11/15 00:45:26;;;;;;;83.43;42.30;;;;;;;5.73;94.62;102184.94;5006493;28;20041;-69
2021/11/15 00:47:53;;;;;;;80.93;41.88;;;;;;;5.75;94.96;102180.56;5018305;28;20065;-68
2021/11/15 00:50:21;;;;;;;81.25;43.75;;;;;;;5.72;94.90;102181.47;5020971;28;20079;-66
2021/11/15 00:52:50;;;;;;;77.05;42.85;;;;;;;5.69;95.12;102183.25;5006474;28;20157;-66
2021/11/15 00:55:18;;;;;;;83.68;43.67;;;;;;;5.70;95.24;102185.84;5005877;28;20041;-68
2021/11/15 00:57:46;;;;;;;75.03;41.13;;;;;;;5.73;95.19;102184.94;5025880;28;20045;-68
2021/11/15 01:00:17;;;;;;;75.03;41.30;;;;;;;5.72;95.38;102185.81;5007572;28;20108;-68
2021/11/15 01:02:44;;;;;;;84.53;43.38;;;;;;;5.74;95.07;102178.84;5008523;28;20044;-67
2021/11/15 01:05:15;;;;;;;75.72;41.83;;;;;;;5.69;94.99;102176.28;5003881;28;20447;-67
2021/11/15 01:07:43;;;;;;;78.68;41.92;;;;;;;5.70;95.28;102174.53;5023235;28;20065;-68
2021/11/15 01:10:13;;;;;;;75.40;40.10;;;;;;;5.69;94.87;102171.06;4988397;28;20367;-67
2021/11/15 01:12:40;;;;;;;76.38;40.63;;;;;;;5.67;95.32;102179.78;5006224;28;20046;-69
2021/11/15 01:15:13;;;;;;;76.18;39.60;;;;;;;5.66;95.47;102175.47;5019089;28;20057;-66
2021/11/15 01:17:41;;;;;;;72.25;39.28;;;;;;;5.68;95.56;102178.94;5019209;28;20057;-68
2021/11/15 01:20:11;;;;;;;79.72;41.13;;;;;;;5.67;95.54;102171.94;4990054;28;20065;-67
2021/11/15 01:22:38;;;;;;;73.40;40.25;;;;;;;5.68;95.73;102176.31;5004709;28;20053;-68
2021/11/15 01:25:05;;;;;;;76.45;41.15;;;;;;;5.70;95.93;102172.78;5018177;28;20068;-67
2021/11/15 01:27:33;;;;;;;74.30;40.28;;;;;;;5.75;95.67;102172.72;5006249;28;20065;-68
2021/11/15 01:30:00;;;;;;;73.25;39.25;;;;;;;5.73;95.72;102177.13;4987820;28;20057;-68
2021/11/15 01:32:28;;;;;;;70.00;39.00;;;;;;;5.73;95.40;102177.13;5023969;28;20053;-68
2021/11/15 01:34:56;;;;;;;77.80;42.03;;;;;;;5.75;95.38;102170.09;5005654;28;20072;-67
2021/11/15 01:37:23;;;;;;;71.40;40.25;;;;;;;5.78;95.62;102177.91;5025002;28;20045;-67
2021/11/15 01:39:50;;;;;;;76.30;41.97;;;;;;;5.79;95.28;102182.25;4990036;28;20136;-67
2021/11/15 01:42:18;;;;;;;72.20;39.90;;;;;;;5.78;94.67;102176.16;5004761;28;20480;-68
2021/11/15 01:44:45;;;;;;;66.35;38.90;;;;;;;5.78;95.15;102175.28;5019360;28;20052;-67
2021/11/15 01:47:12;;;;;;;73.22;40.28;;;;;;;5.74;94.92;102174.47;5022606;28;20054;-67
2021/11/15 01:49:40;;;;;;;69.75;38.67;;;;;;;5.76;95.15;102174.44;5005851;28;20045;-67
2021/11/15 01:52:07;;;;;;;70.45;39.80;;;;;;;5.77;95.08;102176.19;5006346;28;20053;-68
2021/11/15 01:54:35;;;;;;;73.05;39.80;;;;;;;5.82;95.08;102169.13;5023394;28;20064;-67
2021/11/15 01:57:03;;;;;;;69.13;38.95;;;;;;;5.80;94.94;102170.88;5005774;28;20149;-67
2021/11/15 01:59:30;;;;;;;72.35;38.58;;;;;;;5.78;95.37;102167.44;5020803;28;20080;-68
2021/11/15 02:01:57;;;;;;;73.50;39.70;;;;;;;5.74;95.21;102164.00;5022096;28;20057;-68
2021/11/15 02:04:25;;;;;;;70.82;38.47;;;;;;;5.73;95.36;102167.53;5021454;28;20088;-68
2021/11/15 02:06:53;;;;;;;80.57;40.67;;;;;;;5.75;95.67;102162.25;5006798;28;20061;-68
2021/11/15 02:09:20;;;;;;;65.03;37.25;;;;;;;5.72;95.11;102164.91;5021474;28;20065;-67
2021/11/15 02:11:47;;;;;;;66.30;37.22;;;;;;;5.75;95.46;102159.66;5006967;28;20067;-68
2021/11/15 02:14:14;;;;;;;68.47;37.67;;;;;;;5.73;95.65;102167.53;5021796;28;20049;-68
2021/11/15 02:16:42;;;;;;;73.15;37.63;;;;;;;5.72;95.59;102159.69;5006475;28;20135;-69
2021/11/15 02:19:09;;;;;;;67.10;38.42;;;;;;;5.78;95.43;102160.47;5003202;28;20145;-68
2021/11/15 02:21:36;;;;;;;72.25;39.58;;;;;;;5.77;95.14;102157.91;5019818;28;20119;-69
2021/11/15 02:24:08;;;;;;;68.70;38.80;;;;;;;5.74;94.67;102156.16;5018288;28;20080;-68
2021/11/15 02:26:35;;;;;;;71.53;38.22;;;;;;;5.74;95.04;102153.56;4989647;28;20053;-68
2021/11/15 02:29:02;;;;;;;65.80;37.47;;;;;;;5.79;94.42;102151.75;5006339;28;20627;-69
2021/11/15 02:31:30;;;;;;;65.63;38.67;;;;;;;5.83;94.43;102150.81;4997838;28;20132;-69
2021/11/15 02:33:59;;;;;;;63.20;36.65;;;;;;;5.83;94.30;102144.72;5004879;28;21976;-67
2021/11/15 02:36:27;;;;;;;72.63;39.65;;;;;;;5.85;94.03;102150.78;5019133;28;20049;-68
2021/11/15 02:38:55;;;;;;;65.50;36.22;;;;;;;5.82;94.46;102149.09;5019446;28;20160;-68
2021/11/15 02:41:25;;;;;;;72.18;38.25;;;;;;;5.82;94.32;102143.00;5006426;28;20800;-68
2021/11/15 02:43:52;;;;;;;66.05;36.85;;;;;;;5.86;93.64;102149.91;5003149;28;20049;-69
2021/11/15 02:46:19;;;;;;;68.00;37.05;;;;;;;5.85;93.62;102145.56;5001125;28;20474;-68
2021/11/15 02:48:47;;;;;;;63.25;35.92;;;;;;;5.86;93.87;102149.91;5005357;28;20053;-69
2021/11/15 02:51:15;;;;;;;62.80;35.83;;;;;;;5.85;93.99;102148.16;5006738;28;20052;-68
2021/11/15 02:53:43;;;;;;;62.83;35.17;;;;;;;5.86;93.88;102151.66;4988464;28;20073;-67
2021/11/15 02:56:10;;;;;;;68.13;37.58;;;;;;;5.86;94.30;102149.06;5004016;28;20083;-68
2021/11/15 02:58:37;;;;;;;67.45;38.20;;;;;;;5.86;94.24;102155.16;5021300;28;20045;-67
2021/11/15 03:01:11;;;;;;;68.63;37.95;;;;;;;5.90;94.30;102149.00;5008078;28;20367;-69
2021/11/15 03:03:40;;;;;;;66.55;37.17;;;;;;;5.90;94.76;102158.56;5004844;28;20568;-70
2021/11/15 03:06:07;;;;;;;66.28;36.50;;;;;;;5.87;95.02;102161.22;5003682;28;20133;-67
2021/11/15 03:08:35;;;;;;;65.00;37.47;;;;;;;5.85;94.96;102158.63;5029075;28;20033;-66
2021/11/15 03:11:05;;;;;;;69.78;38.50;;;;;;;5.89;95.12;102154.22;5018054;28;20053;-68
2021/11/15 03:13:47;;;;;;;64.78;36.63;;;;;;;5.90;95.28;102159.44;5016353;28;20174;-67
2021/11/15 03:16:15;;;;;;;65.85;38.03;;;;;;;5.89;94.95;102159.44;5014953;28;20175;-65
2021/11/15 03:18:43;;;;;;;65.38;36.63;;;;;;;5.86;95.49;102155.16;5029132;28;20064;-67
2021/11/15 03:21:13;;;;;;;67.57;38.33;;;;;;;5.82;96.05;102161.31;5026485;28;20054;-67
2021/11/15 03:23:43;;;;;;;65.00;36.90;;;;;;;5.83;96.10;102166.50;5026974;28;20056;-67
2021/11/15 03:26:10;;;;;;;68.07;38.55;;;;;;;5.82;96.39;102161.31;5023437;28;20053;-68
2021/11/15 03:28:40;;;;;;;68.40;38.15;;;;;;;5.83;96.15;102161.25;4988025;28;20054;-67
2021/11/15 03:31:16;;;;;;;68.78;38.03;;;;;;;5.81;96.71;102160.44;5021082;28;20060;-67
2021/11/15 03:33:44;;;;;;;65.93;38.55;;;;;;;5.84;96.72;102165.59;5004279;28;20046;-67
2021/11/15 03:36:12;;;;;;;69.10;37.92;;;;;;;5.84;96.51;102162.13;4988509;28;20103;-68
2021/11/15 03:38:40;;;;;;;68.20;38.90;;;;;;;5.78;96.76;102157.88;5022275;28;20034;-69
2021/11/15 03:41:08;;;;;;;68.97;38.58;;;;;;;5.82;96.93;102156.94;5000624;28;20046;-69
2021/11/15 03:43:35;;;;;;;70.35;39.80;;;;;;;5.80;97.37;102157.81;4993656;28;20057;-69
2021/11/15 03:46:03;;;;;;;70.53;37.63;;;;;;;5.78;97.51;102159.63;4991432;28;20095;-69
2021/11/15 03:48:31;;;;;;;78.13;40.25;;;;;;;5.78;98.14;102160.47;4984318;28;20058;-68
2021/11/15 03:50:58;;;;;;;69.57;39.40;;;;;;;5.76;98.22;102167.47;5004018;28;20049;-69
2021/11/15 03:53:30;;;;;;;74.85;39.58;;;;;;;5.77;98.59;102170.97;5004425;28;20786;-69
2021/11/15 03:55:58;;;;;;;69.68;38.00;;;;;;;5.74;98.26;102169.25;4987385;28;20047;-68
2021/11/15 03:58:25;;;;;;;77.60;42.15;;;;;;;5.72;98.63;102167.53;5004744;28;20363;-68
2021/11/15 04:00:54;;;;;;;74.13;40.13;;;;;;;5.74;98.51;102158.78;5018527;28;20065;-68
2021/11/15 04:03:31;;;;;;;72.10;40.13;;;;;;;5.73;98.85;102164.03;4996725;28;20050;-68
2021/11/15 04:06:03;;;;;;;75.40;40.83;;;;;;;5.78;98.96;102162.22;5003858;28;20152;-66
2021/11/15 04:08:31;;;;;;;71.90;41.80;;;;;;;5.78;99.11;102163.09;5019887;28;20730;-68
2021/11/15 04:11:00;;;;;;;73.72;40.33;;;;;;;5.77;99.12;102168.34;4999564;28;20571;-68
2021/11/15 04:13:35;;;;;;;76.32;40.63;;;;;;;5.74;99.13;102163.16;4987391;28;20064;-68
2021/11/15 04:16:04;;;;;;;;;;;;;;;5.77;99.55;102168.34;5001570;28;20155;-67
2021/11/15 04:18:35;;;;;;;68.00;37.53;;;;;;;5.78;99.37;102163.09;4989260;28;19925;-67
2021/11/15 04:21:04;;;;;;;73.15;39.35;;;;;;;5.78;99.52;102157.88;5005803;28;20053;-67
2021/11/15 04:23:31;;;;;;;79.53;39.72;;;;;;;5.80;99.41;102156.06;5016328;28;20997;-67
2021/11/15 04:25:58;;;;;;;72.38;40.33;;;;;;;5.78;99.57;102157.00;5019356;28;20467;-70
2021/11/15 04:28:25;;;;;;;76.70;41.72;;;;;;;5.80;99.95;102153.47;5005245;28;20072;-69
2021/11/15 04:30:53;;;;;;;70.60;39.15;;;;;;;5.81;99.82;102155.22;5023353;28;20145;-68
2021/11/15 04:33:20;;;;;;;79.43;41.47;;;;;;;5.80;99.74;102157.81;5020269;28;20053;-68
2021/11/15 04:35:47;;;;;;;74.05;40.78;;;;;;;5.79;99.73;102154.34;5024570;28;20351;-68
2021/11/15 04:38:14;;;;;;;73.68;41.28;;;;;;;5.83;99.36;102152.56;5008435;28;20054;-69
2021/11/15 04:40:42;;;;;;;76.13;39.13;;;;;;;5.82;99.51;102151.72;5021440;28;20076;-68
2021/11/15 04:43:09;;;;;;;71.50;38.30;;;;;;;5.85;99.82;102153.38;5007808;28;20518;-68
2021/11/15 04:45:36;;;;;;;74.82;40.03;;;;;;;5.81;99.32;102149.97;5021189;28;20533;-67
2021/11/15 04:48:04;;;;;;;77.13;41.13;;;;;;;5.84;99.40;102156.91;5024733;28;20149;-70
2021/11/15 04:50:31;;;;;;;70.88;38.83;;;;;;;5.76;99.44;102157.03;5007799;28;20413;-67
2021/11/15 04:52:59;;;;;;;87.25;40.45;;;;;;;5.73;100.00;102154.47;5009835;28;20085;-67
2021/11/15 04:55:27;;;;;;;69.93;38.95;;;;;;;5.71;100.00;102152.72;5023003;28;20049;-66
2021/11/15 04:57:55;;;;;;;76.00;40.92;;;;;;;5.71;100.00;102155.34;5022526;28;20056;-67
2021/11/15 05:00:29;;;;;;;70.97;41.10;;;;;;;5.70;100.00;102151.88;5020962;28;20131;-68
2021/11/15 05:02:56;;;;;;;77.93;41.00;;;;;;;5.71;100.00;102150.13;5020112;28;20067;-68
2021/11/15 05:05:23;;;;;;;70.50;38.35;;;;;;;5.67;100.00;102143.22;5005046;28;20061;-67
2021/11/15 05:07:55;;;;;;;78.20;40.88;;;;;;;5.66;100.00;102149.31;5026106;28;20462;-68
2021/11/15 05:10:24;;;;;;;73.80;41.00;;;;;;;5.65;100.00;102143.25;5003804;28;20124;-67
2021/11/15 05:12:52;;;;;;;70.85;39.17;;;;;;;5.72;100.00;102141.38;4993083;28;20084;-67
2021/11/15 05:15:20;;;;;;;74.30;40.00;;;;;;;5.71;100.00;102144.91;5002417;28;20053;-68
2021/11/15 05:17:49;;;;;;;74.28;38.60;;;;;;;5.76;100.00;102143.97;5026755;28;20053;-68
2021/11/15 05:20:17;;;;;;;79.43;41.53;;;;;;;5.79;100.00;102146.50;5019839;28;20167;-66
2021/11/15 05:22:44;;;;;;;69.05;38.58;;;;;;;5.70;100.00;102146.66;5002625;28;20056;-67
2021/11/15 05:25:13;;;;;;;74.43;41.17;;;;;;;5.67;100.00;102151.91;5002728;28;20049;-67
2021/11/15 05:27:41;;;;;;;74.18;39.35;;;;;;;5.67;100.00;102148.44;5004619;28;20053;-67
2021/11/15 05:30:10;;;;;;;84.15;44.03;;;;;;;5.72;100.00;102142.28;5015061;28;20037;-68
2021/11/15 05:32:37;;;;;;;81.78;40.38;;;;;;;5.71;100.00;102155.34;4989464;28;20045;-67
2021/11/15 05:35:06;;;;;;;76.63;40.20;;;;;;;5.68;100.00;102143.22;5015093;28;20469;-66
2021/11/15 05:37:33;;;;;;;77.22;41.35;;;;;;;5.73;100.00;102157.06;5005428;28;20068;-68
2021/11/15 05:40:02;;;;;;;74.07;40.35;;;;;;;5.74;100.00;102150.09;4986362;28;20075;-67
2021/11/15 05:42:29;;;;;;;75.85;40.10;;;;;;;5.71;100.00;102157.97;5004921;28;20064;-66
2021/11/15 05:44:57;;;;;;;74.80;39.83;;;;;;;5.71;100.00;102160.56;5001679;28;20053;-68
2021/11/15 05:47:25;;;;;;;76.97;38.92;;;;;;;5.69;100.00;102154.53;4986607;28;20741;-67
2021/11/15 05:49:52;;;;;;;74.72;39.83;;;;;;;5.75;100.00;102152.66;5003312;28;20137;-68
2021/11/15 05:52:22;;;;;;;80.00;42.00;;;;;;;5.77;100.00;102155.28;5007409;28;20049;-67
2021/11/15 05:54:51;;;;;;;75.43;40.58;;;;;;;5.77;100.00;102157.91;4987264;28;20057;-68
2021/11/15 05:57:18;;;;;;;78.38;41.03;;;;;;;5.77;100.00;102157.91;5005974;28;20131;-68
2021/11/15 05:59:46;;;;;;;76.20;41.03;;;;;;;5.71;100.00;102153.59;4988604;28;20091;-68
2021/11/15 06:02:15;;;;;;;79.53;42.40;;;;;;;5.74;100.00;102157.94;5011137;28;20076;-70
2021/11/15 06:04:43;;;;;;;76.45;40.10;;;;;;;5.74;100.00;102161.41;5022783;28;20117;-68
2021/11/15 06:07:11;;;;;;;73.40;39.75;;;;;;;5.76;100.00;102159.66;5004567;28;20042;-68
2021/11/15 06:09:38;;;;;;;78.47;41.53;;;;;;;5.77;100.00;102168.34;5003764;28;20045;-68
2021/11/15 06:12:07;;;;;;;80.53;40.53;;;;;;;5.85;100.00;102171.69;4990703;28;20068;-67
2021/11/15 06:14:34;;;;;;;83.72;42.25;;;;;;;5.79;100.00;102172.66;5013299;28;20084;-67
2021/11/15 06:17:02;;;;;;;77.10;40.78;;;;;;;5.79;100.00;102171.78;4992079;28;20699;-68
2021/11/15 06:19:29;;;;;;;74.20;40.03;;;;;;;5.76;100.00;102167.47;4988312;28;20064;-69
2021/11/15 06:21:56;;;;;;;81.55;40.33;;;;;;;5.73;100.00;102175.34;5001767;28;20084;-68
2021/11/15 06:24:24;;;;;;;76.07;40.17;;;;;;;5.78;100.00;102180.53;5015838;28;20057;-66
2021/11/15 06:26:52;;;;;;;77.43;38.65;;;;;;;5.76;100.00;102179.66;5019214;28;20048;-68
2021/11/15 06:29:19;;;;;;;77.65;40.40;;;;;;;5.76;100.00;102174.44;5022390;28;20077;-69
2021/11/15 06:31:48;;;;;;;75.50;40.03;;;;;;;5.78;100.00;102183.13;5008237;28;20064;-68
2021/11/15 06:34:15;;;;;;;75.93;39.50;;;;;;;5.81;100.00;102186.56;5004870;28;20133;-68
2021/11/15 06:36:42;;;;;;;80.03;39.60;;;;;;;5.84;100.00;102180.41;5022246;28;20037;-68
2021/11/15 06:39:10;;;;;;;73.20;39.55;;;;;;;5.83;100.00;102181.31;5002960;28;20061;-69
2021/11/15 06:41:38;;;;;;;77.57;40.47;;;;;;;5.76;100.00;102182.28;5008636;28;20051;-69
2021/11/15 06:44:06;;;;;;;71.00;38.75;;;;;;;5.74;100.00;102191.91;5021617;28;20061;-68
2021/11/15 06:46:33;;;;;;;72.13;39.67;;;;;;;5.78;100.00;102189.22;5005214;28;20041;-69
2021/11/15 06:49:01;;;;;;;75.65;38.08;;;;;;;5.73;100.00;102188.44;5002760;28;20042;-71
2021/11/15 06:51:37;;;;;;;75.15;38.63;;;;;;;5.73;100.00;102187.56;5009159;28;20487;-73
2021/11/15 06:54:04;;;;;;;74.95;37.30;;;;;;;5.74;100.00;102194.50;5025137;28;20038;-70
2021/11/15 06:56:32;;;;;;;74.93;40.05;;;;;;;5.70;100.00;102185.84;4973656;28;20042;-70
2021/11/15 06:58:59;;;;;;;70.68;37.08;;;;;;;5.72;100.00;102176.25;5002405;28;20152;-69
2021/11/15 07:01:27;;;;;;;75.93;38.47;;;;;;;5.73;100.00;102184.94;5004962;28;20045;-70
2021/11/15 07:03:56;;;;;;;69.25;37.55;;;;;;;5.76;100.00;102182.28;5005279;28;20154;-70
2021/11/15 07:06:24;;;;;;;73.90;38.00;;;;;;;5.74;100.00;102179.69;4989680;28;21748;-69
2021/11/15 07:08:51;;;;;;;81.05;39.88;;;;;;;5.78;100.00;102183.13;5005887;28;20383;-70
2021/11/15 07:11:19;;;;;;;72.40;35.88;;;;;;;5.74;100.00;102179.69;4996873;28;20050;-69
2021/11/15 07:13:46;;;;;;;69.97;35.88;;;;;;;5.76;100.00;102183.16;5018434;28;20041;-69
2021/11/15 07:16:13;;;;;;;66.05;34.75;;;;;;;5.83;100.00;102181.31;4998524;28;20065;-69
2021/11/15 07:18:41;;;;;;;66.18;34.25;;;;;;;5.87;100.00;102176.91;4990591;28;20041;-72
2021/11/15 07:21:08;;;;;;;63.83;35.97;;;;;;;5.80;100.00;102179.59;4985741;28;20438;-71
2021/11/15 07:23:36;;;;;;;65.10;34.55;;;;;;;5.81;100.00;102183.09;5004539;28;20051;-69
2021/11/15 07:26:03;;;;;;;61.00;31.77;;;;;;;5.84;100.00;102180.41;5003518;28;20056;-69
2021/11/15 07:28:31;;;;;;;65.72;33.63;;;;;;;5.87;100.00;102185.63;5022311;28;20144;-70
2021/11/15 07:30:58;;;;;;;66.38;32.95;;;;;;;5.92;100.00;102186.44;5004370;28;20049;-69
2021/11/15 07:33:27;;;;;;;63.40;32.92;;;;;;;5.90;100.00;102190.81;5004894;28;20073;-69
2021/11/15 07:35:54;;;;;;;60.47;32.88;;;;;;;5.92;100.00;102185.56;4991522;28;20064;-69
2021/11/15 07:38:22;;;;;;;62.80;31.17;;;;;;;5.97;100.00;102181.16;5006657;28;20533;-72
2021/11/15 07:40:49;;;;;;;61.85;33.83;;;;;;;5.97;100.00;102189.84;5003084;28;20041;-70
2021/11/15 07:43:17;;;;;;;60.67;32.60;;;;;;;5.98;99.56;102186.34;5022778;28;20244;-69
2021/11/15 07:45:44;;;;;;;57.78;31.15;;;;;;;5.99;99.65;102181.97;4990525;28;20253;-68
2021/11/15 07:48:11;;;;;;;65.90;31.48;;;;;;;6.01;99.38;102193.28;4998899;28;20049;-68
2021/11/15 07:50:39;;;;;;;55.35;29.83;;;;;;;5.98;99.50;102191.56;5005939;28;20033;-68
2021/11/15 07:53:07;;;;;;;59.05;31.35;;;;;;;5.98;99.55;102198.53;5016295;28;20121;-68
2021/11/15 07:55:34;;;;;;;59.97;32.17;;;;;;;6.02;99.29;102200.22;5017241;28;20049;-72
2021/11/15 07:58:04;;;;;;;55.72;29.77;;;;;;;5.95;98.92;102198.63;5004774;28;20060;-69
2021/11/15 08:00:31;;;;;;;55.55;30.65;;;;;;;6.01;99.32;102191.53;5004322;28;20049;-67
2021/11/15 08:02:59;;;;;;;55.20;29.90;;;;;;;6.00;99.06;102195.03;5005998;28;20509;-69
2021/11/15 08:05:27;;;;;;;56.88;31.48;;;;;;;6.07;98.86;102196.66;5020675;28;20382;-70
2021/11/15 08:07:54;;;;;;;59.40;29.60;;;;;;;6.09;98.53;102196.66;4994650;28;20148;-68
2021/11/15 08:10:22;;;;;;;51.45;28.65;;;;;;;6.15;98.60;102191.31;4989500;28;20095;-68
2021/11/15 08:12:53;;;;;;;57.63;30.23;;;;;;;6.15;98.54;102193.06;4977643;28;20049;-68
2021/11/15 08:15:22;;;;;;;56.33;29.02;;;;;;;6.12;98.67;102190.50;4972788;28;20329;-68
2021/11/15 08:17:51;;;;;;;57.80;31.10;;;;;;;6.17;98.31;102191.28;5002524;28;20522;-70
2021/11/15 08:20:23;;;;;;;57.05;30.15;;;;;;;6.19;98.01;102186.91;4998239;28;20061;-69
2021/11/15 08:22:53;;;;;;;49.85;28.08;;;;;;;6.28;97.55;102182.41;5007118;28;20096;-70
2021/11/15 08:25:27;;;;;;;52.28;28.20;;;;;;;6.33;97.51;102185.78;5007330;28;20108;-69
2021/11/15 08:27:55;;;;;;;53.47;27.30;;;;;;;6.38;97.06;102177.00;5009950;28;20065;-69
2021/11/15 08:30:22;;;;;;;53.30;28.02;;;;;;;6.33;96.07;102182.31;5000032;28;20142;-69
2021/11/15 08:36:31;;;;;;;51.08;26.08;;;;;;;6.37;95.78;102178.75;5027767;28;20107;-68
2021/11/15 08:39:03;;;;;;;51.70;28.08;;;;;;;6.37;95.56;102181.38;4987842;28;20100;-69
2021/11/15 08:41:36;;;;;;;50.63;28.45;;;;;;;6.42;95.31;102176.06;5006207;28;20030;-69
2021/11/15 08:44:06;;;;;;;57.63;26.92;;;;;;;6.41;95.22;102183.06;4981762;28;20057;-70
2021/11/15 08:46:37;;;;;;;56.13;30.15;;;;;;;6.44;95.11;102182.13;5010156;28;20109;-69
2021/11/15 08:49:08;;;;;;;60.47;30.73;;;;;;;6.50;94.79;102179.44;4988614;28;20061;-71
2021/11/15 08:51:37;;;;;;;49.63;28.67;;;;;;;6.47;94.45;102172.47;5010668;28;20037;-69
2021/11/15 08:54:06;;;;;;;46.63;25.17;;;;;;;6.49;94.34;102182.94;4999001;28;20046;-68
2021/11/15 08:56:34;;;;;;;52.55;26.92;;;;;;;6.49;94.07;102185.56;5007636;28;20051;-69
2021/11/15 08:59:22;;;;;;;53.13;28.00;;;;;;;6.47;94.18;102188.19;5027607;28;20341;-68
2021/11/15 09:01:50;;;;;;;48.30;25.33;;;;;;;6.47;93.98;102184.69;5008539;28;20493;-69
2021/11/15 09:04:17;;;;;;;48.65;26.50;;;;;;;6.44;93.91;102184.75;5022904;28;20045;-70
2021/11/15 09:06:45;;;;;;;50.88;25.27;;;;;;;6.45;94.00;102192.59;5037234;28;20160;-69
2021/11/15 09:09:16;;;;;;;50.33;24.95;;;;;;;6.40;93.63;102191.81;5037757;28;20145;-69
2021/11/15 09:11:49;;;;;;;47.08;25.92;;;;;;;6.36;93.11;102192.75;5026191;28;20105;-69
2021/11/15 09:14:18;;;;;;;48.60;26.73;;;;;;;6.32;94.18;102189.31;4993290;28;20456;-68
2021/11/15 09:16:46;;;;;;;51.67;25.23;;;;;;;6.29;93.93;102191.09;5020355;28;20149;-69
2021/11/15 09:19:16;;;;;;;48.17;23.73;;;;;;;6.29;93.42;102191.09;5006612;28;20071;-69
2021/11/15 09:21:43;;;;;;;46.20;26.55;;;;;;;6.29;93.55;102191.09;5021457;28;20054;-68
2021/11/15 09:24:10;;;;;;;49.00;25.67;;;;;;;6.26;93.68;102189.41;5019950;28;20057;-68
2021/11/15 09:26:38;;;;;;;48.10;25.27;;;;;;;6.27;93.92;102185.03;5007095;28;20045;-67
2021/11/15 09:29:07;;;;;;;49.78;26.45;;;;;;;6.25;94.00;102195.50;5005155;28;20046;-69
2021/11/15 09:31:34;;;;;;;49.40;26.73;;;;;;;6.28;93.60;102190.25;5009185;28;20071;-68
2021/11/15 09:34:02;;;;;;;53.92;27.73;;;;;;;6.28;93.15;102187.63;5015246;28;20058;-69
2021/11/15 09:36:29;;;;;;;47.58;25.67;;;;;;;6.24;93.51;102185.94;5009200;28;20045;-69
2021/11/15 09:38:58;;;;;;;54.63;27.67;;;;;;;6.34;92.85;102197.13;5011460;28;20048;-70
2021/11/15 09:41:26;;;;;;;54.55;27.63;;;;;;;6.38;93.03;102190.94;5022037;28;20049;-69
2021/11/15 09:43:54;;;;;;;52.50;26.85;;;;;;;6.44;92.63;102193.47;5017677;28;20057;-70
2021/11/15 09:46:25;;;;;;;53.92;28.48;;;;;;;6.38;92.81;102195.31;5023265;28;20059;-69
2021/11/15 09:49:09;;;;;;;59.95;29.80;;;;;;;6.41;92.23;102195.28;4991577;28;20067;-70
2021/11/15 09:51:41;;;;;;;56.67;27.85;;;;;;;6.50;91.40;102188.13;5009338;28;20058;-68
2021/11/15 09:54:11;;;;;;;58.10;27.83;;;;;;;6.46;91.88;102193.44;5008753;28;20053;-68
2021/11/15 09:56:38;;;;;;;54.28;28.73;;;;;;;6.50;91.72;102187.28;5022268;28;20144;-67
2021/11/15 09:59:10;;;;;;;56.83;27.85;;;;;;;6.52;91.27;102193.34;5001893;28;20057;-68
2021/11/15 10:01:42;;;;;;;53.30;26.17;;;;;;;6.51;91.52;102197.69;5007428;28;20080;-69
2021/11/15 10:04:21;;;;;;;60.22;27.77;;;;;;;6.59;91.36;102194.97;5005148;28;20053;-68
2021/11/15 10:06:52;;;;;;;49.95;25.92;;;;;;;6.64;90.37;102200.97;5013972;28;20046;-67
2021/11/15 10:09:38;;;;;;;49.65;26.48;;;;;;;6.66;89.98;102193.94;5021445;28;20059;-68
2021/11/15 10:12:08;;;;;;;50.00;25.95;;;;;;;6.59;90.00;102193.22;5007524;28;20307;-68
2021/11/15 10:14:35;;;;;;;45.88;24.95;;;;;;;6.51;90.56;102182.00;5024278;28;20348;-68
2021/11/15 10:17:03;;;;;;;54.75;25.58;;;;;;;6.44;90.87;102183.03;5018975;28;20049;-69
2021/11/15 10:19:32;;;;;;;50.10;25.27;;;;;;;6.53;90.98;102176.78;5017049;28;20053;-69
2021/11/15 10:22:03;;;;;;;46.90;25.23;;;;;;;6.57;90.01;102174.06;5021841;28;20065;-68
2021/11/15 10:24:36;;;;;;;50.47;27.67;;;;;;;6.56;90.63;102172.31;5018125;28;20041;-71
2021/11/15 10:27:11;;;;;;;45.60;24.77;;;;;;;6.52;90.74;102172.41;5008834;28;20144;-67
2021/11/15 10:29:45;;;;;;;45.28;23.90;;;;;;;6.61;91.44;102172.25;5017902;28;20086;-68
2021/11/15 10:32:18;;;;;;;46.60;24.93;;;;;;;6.68;90.93;102176.50;5019273;28;20066;-69
2021/11/15 10:34:47;;;;;;;47.95;25.60;;;;;;;6.79;90.57;102176.28;5019881;28;20558;-68
2021/11/15 10:37:18;;;;;;;60.05;27.15;;;;;;;6.88;89.83;102178.72;5027735;28;20049;-68
2021/11/15 10:39:50;;;;;;;44.25;25.10;;;;;;;6.87;89.67;102178.75;5025181;28;20053;-68
2021/11/15 10:42:28;;;;;;;44.15;24.70;;;;;;;6.88;89.36;102183.09;4992441;28;20053;-69
2021/11/15 10:45:27;;;;;;;49.90;26.05;;;;;;;6.83;88.90;102183.19;5018693;28;20041;-69
2021/11/15 10:48:01;;;;;;;47.08;24.83;;;;;;;6.72;88.74;102179.91;5003492;28;20042;-68
2021/11/15 10:53:20;;;;;;;43.63;24.08;;;;;;;6.57;90.19;102181.91;5005400;28;21550;-68
2021/11/15 10:56:28;;;;;;;51.10;25.65;;;;;;;6.50;90.42;102164.59;5005023;28;20502;-70
2021/11/15 10:58:55;;;;;;;45.20;23.83;;;;;;;6.53;90.10;102177.63;5000883;28;20038;-70
2021/11/15 11:01:32;;;;;;;47.22;24.17;;;;;;;6.56;90.24;102179.31;5017905;28;20057;-69
2021/11/15 11:04:15;;;;;;;47.25;23.42;;;;;;;6.49;90.61;102173.34;5021412;28;20083;-69
2021/11/15 11:06:55;;;;;;;41.75;22.30;;;;;;;6.45;90.73;102170.81;5000921;28;20363;-68
2021/11/15 11:09:43;;;;;;;44.78;23.90;;;;;;;6.39;90.97;102173.50;5001227;28;20444;-69
2021/11/15 11:12:15;;;;;;;49.65;23.33;;;;;;;6.46;91.07;102177.75;5000734;28;20141;-69
2021/11/15 11:14:45;;;;;;;44.63;22.20;;;;;;;6.41;91.29;102177.81;5015271;28;20052;-69
2021/11/15 11:17:13;;;;;;;41.42;22.73;;;;;;;6.43;91.33;102181.28;5001910;28;20129;-69
2021/11/15 11:20:25;;;;;;;47.42;23.20;;;;;;;6.46;90.98;102170.75;5023369;28;20305;-68
2021/11/15 11:25:54;;;;;;;58.17;25.67;;;;;;;6.41;91.62;102167.38;5022256;28;20053;-69
2021/11/15 11:28:31;;;;;;;41.35;21.08;;;;;;;6.50;91.60;102161.13;5009778;28;20289;-69
2021/11/15 11:31:00;;;;;;;44.83;23.08;;;;;;;6.43;91.95;102146.41;5001408;28;20510;-69
2021/11/15 11:33:30;;;;;;;42.25;23.75;;;;;;;6.42;91.81;102152.53;5003449;28;20312;-69